This is the latest recevied weather packets stored in our database for station/object 9A7DI-13. If no packets are shown the sender has not sent any weather packets the latest 10 day(s).
| Time | Temp. | Humidity | Pressure | Rain* | Wind** | Luminosity | Snow |
|---|---|---|---|---|---|---|---|
| 1777759634 | 10.56° C | 64% | 1028.8 hPa | - | - | - | - |
| 1777759034 | 11.11° C | 63% | 1028.7 hPa | - | - | - | - |
| 1777758434 | 11.11° C | 64% | 1028.7 hPa | - | - | - | - |
| 1777757834 | 11.11° C | 63% | 1028.7 hPa | - | - | - | - |
| 1777757234 | 11.11° C | 65% | 1028.6 hPa | - | - | - | - |
| 1777756634 | 11.67° C | 61% | 1028.6 hPa | - | - | - | - |
| 1777756034 | 12.22° C | 57% | 1028.4 hPa | - | - | - | - |
| 1777755434 | 12.78° C | 56% | 1028.4 hPa | - | - | - | - |
| 1777754834 | 12.78° C | 57% | 1028.5 hPa | - | - | - | - |
| 1777754234 | 13.33° C | 56% | 1028.5 hPa | - | - | - | - |
| 1777753634 | 13.33° C | 55% | 1028.6 hPa | - | - | - | - |
| 1777753034 | 13.33° C | 55% | 1028.5 hPa | - | - | - | - |
| 1777752434 | 12.78° C | 56% | 1028.6 hPa | - | - | - | - |
| 1777751835 | 12.78° C | 57% | 1028.6 hPa | - | - | - | - |
| 1777751234 | 13.33° C | 55% | 1028.6 hPa | - | - | - | - |
| 1777750634 | 13.33° C | 55% | 1028.6 hPa | - | - | - | - |
| 1777750034 | 14.44° C | 53% | 1028.6 hPa | - | - | - | - |
| 1777749434 | 15° C | 52% | 1028.5 hPa | - | - | - | - |
| 1777748834 | 14.44° C | 50% | 1028.4 hPa | - | - | - | - |
| 1777747634 | 16.67° C | 45% | 1028.3 hPa | - | - | - | - |
| 1777747034 | 16.67° C | 45% | 1028.3 hPa | - | - | - | - |
| 1777746434 | 16.11° C | 45% | 1028.2 hPa | - | - | - | - |
| 1777745834 | 17.78° C | 44% | 1028 hPa | - | - | - | - |
| 1777745234 | 18.33° C | 41% | 1027.9 hPa | - | - | - | - |
| 1777744634 | 19.44° C | 37% | 1027.9 hPa | - | - | - | - |
* Rain since midnight (hover to see other rain measurements)
** Current wind speed in m/s (hover to see current wind gust speed)